createdAt,value
2022-08-30T00:01:09.259Z,4.32
2022-08-30T00:03:42.748Z,4.68
2022-08-30T00:06:09.814Z,5.20
2022-08-30T00:08:37.124Z,5.28
2022-08-30T00:11:04.818Z,4.75
2022-08-30T00:13:31.127Z,4.80
2022-08-30T00:15:57.697Z,5.45
2022-08-30T00:18:24.572Z,5.38
2022-08-30T00:20:51.881Z,5.10
2022-08-30T00:23:19.506Z,4.80
2022-08-30T00:25:45.926Z,5.10
2022-08-30T00:28:12.845Z,4.75
2022-08-30T00:30:39.619Z,5.20
2022-08-30T00:33:06.082Z,5.50
2022-08-30T00:35:32.395Z,5.35
2022-08-30T00:37:58.734Z,4.85
2022-08-30T00:40:27.366Z,5.95
2022-08-30T00:42:59.250Z,5.32
2022-08-30T00:45:28.805Z,5.55
2022-08-30T00:47:55.243Z,5.20
2022-08-30T00:50:22.956Z,5.55
2022-08-30T00:52:50.575Z,5.50
2022-08-30T00:55:17.750Z,5.57
2022-08-30T00:57:45.837Z,5.78
2022-08-30T01:00:12.783Z,5.30
2022-08-30T01:02:39.117Z,5.63
2022-08-30T01:05:06.655Z,5.20
2022-08-30T01:07:33.456Z,6.10
2022-08-30T01:09:59.803Z,6.05
2022-08-30T01:12:26.120Z,5.28
2022-08-30T01:14:52.419Z,6.20
2022-08-30T01:17:21.320Z,5.97
2022-08-30T01:19:57.361Z,5.45
2022-08-30T01:22:28.030Z,5.78
2022-08-30T01:24:55.855Z,5.85
2022-08-30T01:27:22.448Z,6.22
2022-08-30T01:29:48.994Z,6.28
2022-08-30T01:32:19.727Z,5.65
2022-08-30T01:37:17.789Z,5.93
2022-08-30T01:39:45.959Z,5.90
2022-08-30T01:42:13.033Z,6.40
2022-08-30T01:44:39.487Z,6.50
2022-08-30T01:47:06.077Z,6.75
2022-08-30T01:49:32.329Z,6.60
2022-08-30T01:52:00.768Z,6.75
2022-08-30T01:54:27.787Z,7.18
2022-08-30T01:57:03.941Z,6.70
2022-08-30T01:59:30.241Z,6.88
2022-08-30T02:01:56.728Z,7.30
2022-08-30T02:04:23.072Z,6.28
2022-08-30T02:06:49.472Z,7.07
2022-08-30T02:09:15.831Z,6.95
2022-08-30T02:11:42.323Z,6.43
2022-08-30T02:14:08.563Z,7.20
2022-08-30T02:16:34.848Z,7.05
2022-08-30T02:19:01.261Z,7.38
2022-08-30T02:21:27.720Z,7.60
2022-08-30T02:23:54.268Z,7.45
2022-08-30T02:26:20.564Z,7.78
2022-08-30T02:28:49.945Z,7.45
2022-08-30T02:31:17.046Z,7.85
2022-08-30T02:33:46.058Z,8.32
2022-08-30T02:36:12.815Z,7.93
2022-08-30T02:38:39.069Z,8.40
2022-08-30T02:41:05.675Z,7.57
2022-08-30T02:43:31.947Z,8.10
2022-08-30T02:45:58.208Z,7.78
2022-08-30T02:48:24.571Z,7.85
2022-08-30T02:50:51.987Z,7.97
2022-08-30T02:53:20.966Z,8.50
2022-08-30T02:55:48.005Z,9.05
2022-08-30T02:58:14.308Z,8.52
2022-08-30T03:00:41.350Z,8.75
2022-08-30T03:03:08.372Z,8.73
2022-08-30T03:05:35.652Z,9.18
2022-08-30T03:08:06.173Z,9.32
2022-08-30T03:10:32.426Z,9.15
2022-08-30T03:12:58.901Z,9.57
2022-08-30T03:15:25.707Z,9.18
2022-08-30T03:17:52.982Z,9.38
2022-08-30T03:20:19.964Z,10.73
2022-08-30T03:22:46.984Z,9.10
2022-08-30T03:25:13.240Z,9.85
2022-08-30T03:27:39.757Z,9.57
2022-08-30T03:30:06.493Z,9.80
2022-08-30T03:32:32.784Z,10.10
2022-08-30T03:34:59.620Z,10.27
2022-08-30T03:37:27.459Z,10.45
2022-08-30T03:39:56.676Z,10.50
2022-08-30T03:42:23.532Z,10.70
2022-08-30T03:44:51.060Z,10.68
2022-08-30T03:47:17.306Z,10.75
2022-08-30T03:49:43.601Z,11.90
2022-08-30T03:52:09.863Z,11.00
2022-08-30T03:54:36.159Z,10.88
2022-08-30T03:57:04.243Z,10.35
2022-08-30T03:59:30.499Z,12.02
2022-08-30T04:01:56.821Z,11.18
2022-08-30T04:04:23.131Z,11.40
2022-08-30T04:06:49.371Z,10.90
2022-08-30T04:09:15.719Z,10.60
2022-08-30T04:11:42.172Z,11.30
2022-08-30T04:14:08.438Z,11.15
2022-08-30T19:05:03.781Z,1.70
2022-08-30T19:07:36.948Z,1.45
2022-08-30T19:10:04.341Z,1.73
2022-08-30T19:12:30.937Z,1.80
2022-08-30T19:14:59.192Z,1.58
2022-08-30T19:17:26.387Z,1.80
2022-08-30T19:19:53.007Z,1.67
2022-08-30T19:22:20.375Z,2.85
2022-08-30T19:24:47.112Z,1.70
2022-08-30T19:27:13.473Z,1.90
2022-08-30T19:29:40.030Z,2.00
2022-08-30T19:32:07.131Z,1.60
2022-08-30T19:34:36.518Z,1.48
2022-08-30T19:37:02.831Z,1.85
2022-08-30T19:39:29.671Z,1.80
2022-08-30T19:41:55.965Z,1.85
2022-08-30T19:44:22.301Z,1.63
2022-08-30T19:46:50.948Z,1.50
2022-08-30T19:49:17.722Z,2.38
2022-08-30T19:51:46.630Z,1.90
2022-08-30T19:54:13.971Z,1.80
2022-08-30T19:56:40.521Z,1.90
2022-08-30T19:59:07.046Z,1.90
2022-08-30T20:01:34.085Z,1.70
2022-08-30T20:04:01.884Z,2.03
2022-08-30T20:06:28.569Z,1.70
2022-08-30T20:08:56.456Z,2.00
2022-08-30T20:11:23.898Z,1.90
2022-08-30T20:13:50.267Z,1.98
2022-08-30T20:16:17.014Z,2.45
2022-08-30T20:18:44.307Z,2.15
2022-08-30T20:21:13.280Z,1.85
2022-08-30T20:23:41.886Z,1.80
2022-08-30T20:26:09.499Z,2.15
2022-08-30T20:28:35.885Z,2.05
2022-08-30T20:31:03.321Z,2.13
2022-08-30T20:33:29.689Z,1.90
2022-08-30T20:35:59.800Z,2.40
2022-08-30T20:38:26.243Z,2.03
2022-08-30T20:40:53.616Z,2.10
2022-08-30T20:43:21.441Z,2.25
2022-08-30T20:45:48.102Z,1.95
2022-08-30T20:48:15.126Z,2.08
2022-08-30T20:50:41.921Z,2.10
2022-08-30T20:53:08.723Z,2.00
2022-08-30T20:55:35.003Z,2.65
2022-08-30T20:58:01.353Z,2.30
2022-08-30T21:00:27.645Z,2.67
2022-08-30T21:02:54.151Z,2.47
2022-08-30T21:05:20.514Z,2.40
2022-08-30T21:07:47.083Z,2.38
2022-08-30T21:10:13.814Z,2.53
2022-08-30T21:12:40.125Z,2.40
2022-08-30T21:15:33.983Z,2.55
2022-08-30T21:17:53.576Z,2.53
2022-08-30T21:20:19.875Z,2.60
2022-08-30T21:22:47.334Z,2.70
2022-08-30T21:25:13.619Z,2.92
2022-08-30T21:27:39.926Z,2.70
2022-08-30T21:30:06.475Z,2.83
2022-08-30T21:32:32.746Z,2.58
2022-08-30T21:35:17.507Z,2.90
2022-08-30T21:37:43.840Z,2.70
2022-08-30T21:40:14.974Z,2.70
2022-08-30T21:42:41.863Z,2.97
2022-08-30T21:45:08.840Z,2.67
2022-08-30T21:47:35.253Z,2.60
2022-08-30T21:50:01.601Z,2.92
2022-08-30T21:52:27.865Z,2.95
2022-08-30T21:54:54.132Z,3.10
2022-08-30T21:57:20.412Z,3.05
2022-08-30T21:59:46.975Z,3.05
2022-08-30T22:02:13.590Z,3.00
2022-08-30T22:04:40.395Z,2.72
2022-08-30T22:07:08.205Z,2.40
2022-08-30T22:09:35.098Z,2.83
2022-08-30T22:12:01.624Z,2.85
2022-08-30T22:14:28.052Z,2.63
2022-08-30T22:16:54.376Z,2.50
2022-08-30T22:19:23.266Z,2.83
2022-08-30T22:21:50.422Z,2.75
2022-08-30T22:24:17.051Z,3.03
2022-08-30T22:26:44.220Z,2.53
2022-08-30T22:29:10.794Z,2.40
2022-08-30T22:31:41.293Z,2.50
2022-08-30T22:34:09.446Z,2.83
2022-08-30T22:36:37.326Z,2.45
2022-08-30T22:39:04.825Z,2.33
2022-08-30T22:41:31.570Z,2.47
2022-08-30T22:43:58.520Z,2.40
2022-08-30T22:46:33.543Z,2.50
2022-08-30T22:49:02.241Z,2.60
2022-08-30T22:51:29.519Z,2.38
2022-08-30T22:53:55.917Z,2.60
2022-08-30T22:56:24.782Z,2.30
2022-08-30T22:58:51.173Z,2.63
2022-08-30T23:01:19.036Z,2.65
2022-08-30T23:03:46.013Z,2.65
2022-08-30T23:06:12.275Z,2.08
2022-08-30T23:08:38.676Z,2.60
2022-08-30T23:11:05.004Z,2.40
2022-08-30T23:13:31.311Z,2.67
2022-08-30T23:15:57.598Z,2.45
2022-08-30T23:18:23.875Z,2.20
2022-08-30T23:20:50.156Z,2.53
2022-08-30T23:23:35.338Z,2.35
2022-08-30T23:26:20.157Z,2.42
2022-08-30T23:29:05.471Z,2.20
2022-08-30T23:31:50.346Z,2.50
2022-08-30T23:34:35.470Z,2.20
2022-08-30T23:37:20.633Z,2.00
2022-08-30T23:40:05.445Z,2.00
2022-08-30T23:42:50.500Z,2.65
2022-08-30T23:45:35.260Z,2.25
2022-08-30T23:48:20.292Z,2.13
2022-08-30T23:51:05.486Z,2.20
2022-08-30T23:53:50.326Z,2.03
2022-08-30T23:56:35.194Z,1.90
2022-08-30T23:59:19.902Z,2.15
